Time;durP1;ratioP1;P1;durP2;ratioP2;P2;SDS_P1;SDS_P2;PMS_P1;PMS_P2;Temp;Humidity;BMP_temperature;BMP_pressure;BME280_temperature;BME280_humidity;BME280_pressure;Samples;Min_cycle;Max_cycle;Signal;HPM_P1;HPM_P2
2022/01/03 00:01:08;;;;;;;1.70;1.60;;;9.80;99.90;;;;;;4977342;28;20468;-71
2022/01/03 00:03:35;;;;;;;2.53;2.33;;;9.70;99.90;;;;;;4972106;28;20487;-72
2022/01/03 00:06:02;;;;;;;1.67;1.57;;;9.70;99.90;;;;;;4974529;28;20484;-71
2022/01/03 00:08:29;;;;;;;7.17;2.67;;;9.70;99.90;;;;;;4974765;28;21030;-70
2022/01/03 00:10:57;;;;;;;1.73;1.40;;;9.70;99.90;;;;;;4970633;28;20507;-71
2022/01/03 00:13:24;;;;;;;1.47;1.37;;;9.70;99.90;;;;;;4979636;28;20459;-71
2022/01/03 00:15:52;;;;;;;2.80;1.60;;;9.70;99.90;;;;;;4986687;28;20509;-71
2022/01/03 00:18:20;;;;;;;2.47;1.50;;;9.70;99.90;;;;;;4988477;28;20455;-71
2022/01/03 00:20:56;;;;;;;3.30;1.40;;;9.60;99.90;;;;;;5004900;23;21100;-73
2022/01/03 00:23:26;;;;;;;2.60;1.37;;;9.70;99.90;;;;;;4968411;28;20452;-76
2022/01/03 00:25:58;;;;;;;3.27;1.80;;;9.70;99.90;;;;;;4975232;28;20488;-75
2022/01/03 00:28:31;;;;;;;4.70;1.33;;;9.70;99.90;;;;;;4976279;28;20964;-76
2022/01/03 00:30:59;;;;;;;8.77;3.30;;;9.70;99.90;;;;;;4977318;28;20494;-76
2022/01/03 00:33:28;;;;;;;3.67;2.00;;;9.60;99.90;;;;;;4991554;28;20514;-75
2022/01/03 00:35:59;;;;;;;1.57;1.23;;;9.60;99.90;;;;;;4970450;28;20528;-75
2022/01/03 00:38:26;;;;;;;6.20;1.33;;;9.60;99.90;;;;;;4979034;28;20449;-75
2022/01/03 00:40:53;;;;;;;1.87;1.40;;;9.70;99.90;;;;;;4968643;28;20503;-76
2022/01/03 00:43:21;;;;;;;4.33;1.97;;;9.70;99.90;;;;;;4964295;28;20803;-75
2022/01/03 00:45:50;;;;;;;5.70;1.57;;;9.70;99.90;;;;;;4962676;28;20483;-76
2022/01/03 00:48:17;;;;;;;1.93;1.40;;;9.80;99.90;;;;;;4981157;28;20507;-76
2022/01/03 00:50:46;;;;;;;5.60;2.23;;;9.70;99.90;;;;;;4972206;28;20480;-75
2022/01/03 00:53:13;;;;;;;2.30;1.53;;;9.70;99.90;;;;;;4973792;28;20470;-76
2022/01/03 00:55:56;;;;;;;5.30;2.00;;;9.70;99.90;;;;;;4975094;28;20448;-74
2022/01/03 00:58:27;;;;;;;3.10;1.40;;;9.70;99.90;;;;;;4973149;28;20550;-74
2022/01/03 01:00:55;;;;;;;2.50;1.67;;;9.70;99.90;;;;;;4979612;28;20828;-75
2022/01/03 01:03:27;;;;;;;5.90;1.60;;;9.70;99.90;;;;;;4974674;28;20448;-75
2022/01/03 01:05:56;;;;;;;1.60;1.30;;;9.60;99.90;;;;;;4973456;28;20495;-74
2022/01/03 01:08:26;;;;;;;6.70;1.80;;;9.70;99.90;;;;;;4971212;28;21140;-75
2022/01/03 01:10:56;;;;;;;4.37;1.50;;;9.70;99.90;;;;;;4956797;28;20484;-75
2022/01/03 01:13:23;;;;;;;5.97;1.70;;;9.70;99.90;;;;;;4958234;28;20456;-75
2022/01/03 01:15:50;;;;;;;3.90;1.70;;;9.70;99.90;;;;;;4962599;28;20944;-74
2022/01/03 01:18:17;;;;;;;3.90;1.50;;;9.80;99.90;;;;;;4974777;28;20455;-75
2022/01/03 01:20:44;;;;;;;3.77;1.40;;;9.70;99.90;;;;;;4974850;28;21049;-75
2022/01/03 01:23:12;;;;;;;7.43;1.60;;;9.70;99.90;;;;;;4974556;28;20448;-74
2022/01/03 01:28:24;;;;;;;5.33;2.27;;;9.70;99.90;;;;;;4973667;28;20451;-75
2022/01/03 01:30:57;;;;;;;1.87;1.67;;;9.70;99.90;;;;;;4978048;28;20471;-74
2022/01/03 01:33:32;;;;;;;3.43;1.40;;;9.70;99.90;;;;;;4985272;28;20833;-75
2022/01/03 01:36:02;;;;;;;4.93;1.67;;;9.70;99.90;;;;;;4973950;28;20498;-75
2022/01/03 01:38:34;;;;;;;7.20;1.77;;;9.70;99.90;;;;;;4974099;28;21007;-75
2022/01/03 01:41:03;;;;;;;6.43;1.97;;;9.70;99.90;;;;;;4973613;28;20484;-75
2022/01/03 01:43:36;;;;;;;5.53;1.90;;;9.60;99.90;;;;;;4974657;28;20460;-75
2022/01/03 01:46:07;;;;;;;9.47;2.00;;;9.60;99.90;;;;;;4972943;28;20492;-75
2022/01/03 01:48:37;;;;;;;8.83;2.27;;;9.60;99.90;;;;;;4975702;28;20953;-75
2022/01/03 01:51:04;;;;;;;3.83;1.73;;;9.60;99.90;;;;;;4974338;28;20511;-75
2022/01/03 01:53:40;;;;;;;7.77;2.00;;;9.60;99.90;;;;;;4974547;28;20944;-75
2022/01/03 01:56:15;;;;;;;8.43;2.00;;;9.50;99.90;;;;;;4973317;28;20456;-75
2022/01/03 01:58:54;;;;;;;8.97;1.67;;;9.50;99.90;;;;;;4979953;28;20464;-75
2022/01/03 02:01:22;;;;;;;4.00;1.87;;;9.50;99.90;;;;;;4973822;28;20579;-75
2022/01/03 02:03:58;;;;;;;5.83;1.90;;;9.50;99.90;;;;;;4973342;28;20465;-75
2022/01/03 02:06:30;;;;;;;3.73;1.60;;;9.50;99.90;;;;;;4973557;28;20988;-75
2022/01/03 02:09:06;;;;;;;7.73;1.77;;;9.60;99.90;;;;;;4974868;28;20460;-74
2022/01/03 02:11:54;;;;;;;8.67;1.83;;;9.50;99.90;;;;;;4973673;28;20991;-75
2022/01/03 02:14:22;;;;;;;6.20;2.20;;;9.50;99.90;;;;;;4970232;28;20456;-75
2022/01/03 02:16:49;;;;;;;3.67;1.97;;;9.40;99.90;;;;;;4973658;28;20452;-75
2022/01/03 02:19:16;;;;;;;5.07;2.10;;;9.40;99.90;;;;;;4974343;28;20452;-75
2022/01/03 02:21:44;;;;;;;12.53;2.40;;;9.40;99.90;;;;;;4971850;28;20510;-75
2022/01/03 02:24:11;;;;;;;3.87;1.87;;;9.30;99.90;;;;;;4972982;28;20452;-75
2022/01/03 02:26:39;;;;;;;2.03;1.50;;;9.30;99.90;;;;;;4962738;28;20902;-75
2022/01/03 02:29:07;;;;;;;4.40;1.93;;;9.20;99.90;;;;;;4958841;28;20835;-75
2022/01/03 02:31:35;;;;;;;4.90;1.93;;;9.10;99.90;;;;;;4955071;28;20534;-75
2022/01/03 02:34:01;;;;;;;7.77;2.00;;;9.10;99.90;;;;;;4955784;28;20473;-75
2022/01/03 02:36:31;;;;;;;8.20;2.40;;;9.00;99.90;;;;;;4956214;28;20841;-75
2022/01/03 02:38:59;;;;;;;9.70;2.80;;;9.00;99.90;;;;;;4955709;28;20456;-75
2022/01/03 02:41:26;;;;;;;5.43;1.70;;;9.00;99.90;;;;;;4984295;28;20487;-75
2022/01/03 02:43:53;;;;;;;6.40;1.97;;;9.00;99.90;;;;;;4973233;28;20502;-75
2022/01/03 02:46:20;;;;;;;7.20;2.17;;;9.00;99.90;;;;;;4973269;28;20492;-74
2022/01/03 02:48:47;;;;;;;5.00;2.00;;;9.00;99.90;;;;;;4972709;28;20460;-75
2022/01/03 02:51:14;;;;;;;5.40;1.70;;;9.10;99.90;;;;;;4971505;28;20483;-75
2022/01/03 02:53:41;;;;;;;10.13;2.27;;;9.10;99.90;;;;;;4972112;28;20481;-75
2022/01/03 02:56:09;;;;;;;17.00;2.07;;;9.10;99.90;;;;;;4968080;28;20953;-75
2022/01/03 02:58:36;;;;;;;3.40;2.00;;;9.20;99.90;;;;;;4970819;28;20518;-75
2022/01/03 03:01:04;;;;;;;10.50;2.10;;;9.20;99.90;;;;;;4963069;28;20539;-75
2022/01/03 03:03:31;;;;;;;7.90;2.10;;;9.30;99.90;;;;;;4964328;28;20878;-75
2022/01/03 03:05:59;;;;;;;9.00;2.10;;;9.30;99.90;;;;;;4954387;28;20488;-75
2022/01/03 03:08:25;;;;;;;8.93;2.13;;;9.30;99.90;;;;;;4972573;28;20551;-75
2022/01/03 03:10:52;;;;;;;9.80;2.03;;;9.30;99.90;;;;;;4972399;28;20480;-74
2022/01/03 03:13:22;;;;;;;6.53;2.20;;;9.30;99.90;;;;;;4973133;28;20971;-74
2022/01/03 03:15:49;;;;;;;6.17;1.67;;;9.30;99.90;;;;;;4970949;28;20543;-74
2022/01/03 03:18:16;;;;;;;11.33;2.30;;;9.20;99.90;;;;;;4973290;28;20456;-74
2022/01/03 03:20:44;;;;;;;7.50;3.27;;;9.10;99.90;;;;;;4969242;28;21005;-75
2022/01/03 03:23:11;;;;;;;5.77;2.00;;;9.10;99.90;;;;;;4963870;28;20460;-74
2022/01/03 03:25:37;;;;;;;5.67;2.23;;;9.00;99.90;;;;;;4972193;28;20506;-75
2022/01/03 03:28:06;;;;;;;5.50;2.10;;;8.90;99.90;;;;;;4972509;28;20491;-74
2022/01/03 03:30:37;;;;;;;9.60;1.83;;;8.90;99.90;;;;;;4970659;28;20477;-74
2022/01/03 03:33:07;;;;;;;12.07;2.40;;;8.80;99.90;;;;;;4971697;28;20452;-74
2022/01/03 03:35:34;;;;;;;5.17;1.80;;;8.80;99.90;;;;;;4972516;28;20452;-74
2022/01/03 03:38:01;;;;;;;8.13;2.10;;;8.80;99.90;;;;;;4965790;28;20445;-74
2022/01/03 03:40:28;;;;;;;10.27;2.77;;;8.80;99.90;;;;;;4956724;28;20457;-74
2022/01/03 03:42:54;;;;;;;13.43;2.50;;;8.90;99.90;;;;;;4954166;28;20460;-74
2022/01/03 03:45:21;;;;;;;8.60;2.27;;;8.90;99.90;;;;;;4954007;29;20519;-74
2022/01/03 03:47:51;;;;;;;5.50;2.10;;;9.00;99.90;;;;;;4955901;28;20488;-74
2022/01/03 03:50:18;;;;;;;12.00;2.20;;;9.00;99.90;;;;;;4954922;28;20539;-74
2022/01/03 03:52:45;;;;;;;4.80;1.70;;;9.20;99.90;;;;;;4956075;28;20563;-74
2022/01/03 03:55:12;;;;;;;12.37;2.27;;;9.20;99.90;;;;;;4971298;28;20526;-74
2022/01/03 03:57:39;;;;;;;6.53;2.10;;;9.20;99.90;;;;;;4962339;28;20500;-74
2022/01/03 04:00:08;;;;;;;7.90;2.40;;;9.20;99.90;;;;;;4953732;28;20505;-74
2022/01/03 04:02:35;;;;;;;15.73;2.17;;;9.20;99.90;;;;;;4955153;28;20453;-74
2022/01/03 04:05:04;;;;;;;12.23;2.13;;;9.20;99.90;;;;;;4970753;28;20959;-74
2022/01/03 04:07:31;;;;;;;6.87;2.93;;;9.20;99.90;;;;;;4972721;28;20491;-74
2022/01/03 04:09:58;;;;;;;9.13;2.03;;;9.20;99.90;;;;;;4971916;28;20852;-74
2022/01/03 04:12:25;;;;;;;9.03;2.47;;;9.20;99.90;;;;;;4972018;28;20554;-74
2022/01/03 04:14:51;;;;;;;12.23;2.70;;;9.20;99.90;;;;;;4971215;28;20460;-74
2022/01/03 04:17:18;;;;;;;10.20;2.20;;;9.20;99.90;;;;;;4972936;28;20453;-74
2022/01/03 04:19:45;;;;;;;5.77;2.00;;;9.10;99.90;;;;;;4972776;28;20464;-74
2022/01/03 04:22:13;;;;;;;8.00;2.23;;;9.20;99.90;;;;;;4971925;28;20487;-74
2022/01/03 04:24:40;;;;;;;12.63;2.20;;;9.10;99.90;;;;;;4972518;28;20464;-74
2022/01/03 04:27:07;;;;;;;13.27;2.20;;;9.20;99.90;;;;;;4974033;28;20483;-75
2022/01/03 04:29:34;;;;;;;6.90;1.90;;;9.20;99.90;;;;;;4976469;28;20451;-74
2022/01/03 04:32:00;;;;;;;7.80;1.60;;;9.20;99.90;;;;;;4976953;28;20472;-74
2022/01/03 04:34:27;;;;;;;7.20;1.90;;;9.20;99.90;;;;;;4976290;28;20456;-74
2022/01/03 04:36:54;;;;;;;11.43;2.30;;;9.30;99.90;;;;;;4975361;28;20518;-74
2022/01/03 04:39:23;;;;;;;9.03;1.77;;;9.30;99.90;;;;;;4976088;28;20515;-74
2022/01/03 04:41:50;;;;;;;7.23;2.00;;;9.30;99.90;;;;;;4975660;28;20475;-74
2022/01/03 04:44:17;;;;;;;5.57;1.77;;;9.30;99.90;;;;;;4976508;28;20455;-74
2022/01/03 04:46:44;;;;;;;6.20;1.60;;;9.20;99.90;;;;;;4975243;28;20509;-74
2022/01/03 04:49:10;;;;;;;6.47;2.00;;;9.20;99.90;;;;;;4976698;28;20922;-74
2022/01/03 04:51:37;;;;;;;10.70;2.03;;;9.30;99.90;;;;;;4974978;28;20472;-74
2022/01/03 04:54:05;;;;;;;6.13;1.90;;;9.20;99.90;;;;;;4976009;28;20801;-74
2022/01/03 04:56:33;;;;;;;6.77;2.03;;;9.20;99.90;;;;;;4976284;28;20483;-74
2022/01/03 04:59:01;;;;;;;5.80;2.00;;;9.20;99.90;;;;;;4976046;28;20539;-74
2022/01/03 05:01:27;;;;;;;8.17;2.07;;;9.20;99.90;;;;;;4975882;28;20530;-74
2022/01/03 05:03:54;;;;;;;6.33;2.00;;;9.20;99.90;;;;;;4975903;28;20451;-74
2022/01/03 05:06:21;;;;;;;10.63;2.23;;;9.20;99.90;;;;;;4974707;28;20472;-74
2022/01/03 05:08:48;;;;;;;6.27;1.93;;;9.20;99.90;;;;;;4976412;28;20560;-74
2022/01/03 05:11:15;;;;;;;5.27;1.80;;;9.10;99.90;;;;;;4975766;28;20476;-74
2022/01/03 05:13:43;;;;;;;3.40;1.70;;;9.20;99.90;;;;;;4978684;28;20900;-74
2022/01/03 05:16:10;;;;;;;7.50;2.10;;;9.10;99.90;;;;;;4977946;28;20515;-76
2022/01/03 05:18:37;;;;;;;5.80;1.80;;;9.10;99.90;;;;;;4977931;28;20450;-74
2022/01/03 05:21:03;;;;;;;7.73;2.30;;;9.10;99.90;;;;;;4977401;28;21143;-74
2022/01/03 05:23:30;;;;;;;5.43;1.83;;;9.00;99.90;;;;;;4975004;28;20456;-74
2022/01/03 05:25:57;;;;;;;9.00;2.13;;;9.00;99.90;;;;;;4975145;28;20546;-74
2022/01/03 05:28:24;;;;;;;7.07;1.93;;;9.00;99.90;;;;;;4974554;28;20543;-74
2022/01/03 05:30:52;;;;;;;11.00;2.43;;;9.10;99.90;;;;;;4976507;28;20896;-74
2022/01/03 05:33:19;;;;;;;4.90;1.90;;;9.10;99.90;;;;;;4975202;28;20460;-75
2022/01/03 05:35:45;;;;;;;12.50;2.47;;;9.00;99.90;;;;;;4975529;28;20995;-74
2022/01/03 05:38:12;;;;;;;8.30;2.10;;;9.00;99.90;;;;;;4972296;28;20453;-75
2022/01/03 05:40:39;;;;;;;8.77;2.97;;;9.00;99.90;;;;;;4973585;28;20476;-74
2022/01/03 05:43:05;;;;;;;12.17;2.40;;;9.00;99.90;;;;;;4972553;28;20452;-74
2022/01/03 05:45:32;;;;;;;10.60;2.10;;;8.90;99.90;;;;;;4974803;28;20459;-74
2022/01/03 05:48:00;;;;;;;8.60;2.10;;;8.90;99.90;;;;;;4973406;28;20480;-74
2022/01/03 05:50:27;;;;;;;9.57;2.00;;;8.90;99.90;;;;;;4974059;28;20844;-74
2022/01/03 05:52:54;;;;;;;9.97;2.50;;;8.90;99.90;;;;;;4974167;28;20448;-74
2022/01/03 05:55:21;;;;;;;5.70;2.03;;;8.90;99.90;;;;;;4974792;28;20452;-74
2022/01/03 05:57:48;;;;;;;6.67;1.87;;;8.90;99.90;;;;;;4974312;28;20528;-75
2022/01/03 06:00:17;;;;;;;9.33;2.50;;;8.80;99.90;;;;;;4974349;28;20873;-74
2022/01/03 06:02:44;;;;;;;4.50;1.70;;;8.80;99.90;;;;;;4974474;28;20475;-74
2022/01/03 06:05:20;;;;;;;9.07;2.30;;;8.80;99.90;;;;;;4974679;28;20456;-74
2022/01/03 06:07:47;;;;;;;5.57;1.90;;;8.80;99.90;;;;;;4974250;28;20498;-74
2022/01/03 06:10:17;;;;;;;11.73;2.27;;;8.80;99.90;;;;;;4974881;28;20514;-74
2022/01/03 06:12:45;;;;;;;6.27;2.00;;;8.70;99.90;;;;;;4973602;28;20456;-74
2022/01/03 06:15:14;;;;;;;6.53;2.40;;;8.80;99.90;;;;;;4973744;28;21094;-74
2022/01/03 06:17:41;;;;;;;11.00;2.27;;;8.70;99.90;;;;;;4974067;28;20535;-74
2022/01/03 06:20:09;;;;;;;7.93;1.97;;;8.80;99.90;;;;;;4973566;28;20863;-75
2022/01/03 06:22:38;;;;;;;8.00;2.00;;;8.70;99.90;;;;;;5015110;22;20503;-79
2022/01/03 06:25:05;;;;;;;9.97;2.23;;;8.70;99.90;;;;;;4994299;28;20451;-78
2022/01/03 06:27:32;;;;;;;7.80;1.97;;;8.70;99.90;;;;;;5003209;28;21014;-78
2022/01/03 06:29:59;;;;;;;5.33;2.00;;;8.70;99.90;;;;;;5011130;28;20458;-79
2022/01/03 06:32:25;;;;;;;7.97;2.30;;;8.70;99.90;;;;;;4982974;28;20814;-79
2022/01/03 06:34:53;;;;;;;5.73;1.90;;;8.60;99.90;;;;;;4972869;28;20507;-79
2022/01/03 06:37:20;;;;;;;12.13;3.70;;;8.60;99.90;;;;;;4981625;28;20455;-78
2022/01/03 06:39:48;;;;;;;10.63;2.30;;;8.60;99.90;;;;;;4993490;28;20591;-78
2022/01/03 06:42:14;;;;;;;19.10;3.13;;;8.70;99.90;;;;;;4990613;28;20475;-79
2022/01/03 06:44:43;;;;;;;9.43;1.90;;;8.70;99.90;;;;;;4995741;28;21010;-79
2022/01/03 06:47:10;;;;;;;7.57;2.30;;;8.60;99.90;;;;;;4994586;28;20489;-78
2022/01/03 06:49:37;;;;;;;12.07;2.23;;;8.60;99.90;;;;;;4986815;28;20460;-79
2022/01/03 06:52:04;;;;;;;9.73;2.07;;;8.60;99.90;;;;;;4976690;28;20485;-78
2022/01/03 06:54:33;;;;;;;7.80;2.13;;;8.60;99.90;;;;;;4973902;28;20519;-78
2022/01/03 06:57:01;;;;;;;4.40;2.37;;;8.60;99.90;;;;;;4973003;28;20456;-78
2022/01/03 06:59:28;;;;;;;8.10;2.50;;;8.60;99.90;;;;;;4974700;28;20979;-80
2022/01/03 07:01:54;;;;;;;14.23;2.70;;;8.60;99.90;;;;;;4983627;28;20472;-80
2022/01/03 07:04:21;;;;;;;11.07;2.13;;;8.60;99.90;;;;;;4986632;28;20960;-80
2022/01/03 07:06:48;;;;;;;8.77;2.10;;;8.60;99.90;;;;;;4979571;28;20459;-77
2022/01/03 07:09:15;;;;;;;10.63;2.10;;;8.70;99.90;;;;;;4972427;28;20484;-77
2022/01/03 07:11:41;;;;;;;10.10;2.20;;;8.70;99.90;;;;;;4972201;28;20980;-75
2022/01/03 07:19:35;;;;;;;13.73;2.83;;;8.70;99.90;;;;;;4988364;28;20571;-76
2022/01/03 07:22:04;;;;;;;13.17;3.93;;;8.60;99.90;;;;;;4991509;28;20474;-76
2022/01/03 07:24:31;;;;;;;14.73;3.07;;;8.60;99.90;;;;;;4970129;28;20459;-75
2022/01/03 07:27:00;;;;;;;9.63;2.93;;;8.60;99.90;;;;;;4968481;28;20884;-76
2022/01/03 07:29:28;;;;;;;8.57;2.10;;;8.70;99.90;;;;;;4975224;28;20463;-76
2022/01/03 07:31:55;;;;;;;13.67;2.27;;;8.70;99.90;;;;;;4972356;28;20483;-76
2022/01/03 07:34:22;;;;;;;13.00;2.37;;;8.60;99.90;;;;;;4975087;28;20470;-76
2022/01/03 07:36:49;;;;;;;9.80;2.10;;;8.60;99.90;;;;;;4987608;28;20871;-75
2022/01/03 07:39:15;;;;;;;13.00;2.57;;;8.60;99.90;;;;;;4989176;28;20538;-76
2022/01/03 07:41:42;;;;;;;5.83;1.87;;;8.60;99.90;;;;;;4975353;28;20484;-75
2022/01/03 07:44:09;;;;;;;9.10;2.40;;;8.60;99.90;;;;;;4973724;28;20510;-76
2022/01/03 07:46:37;;;;;;;9.07;2.57;;;8.70;99.90;;;;;;4979479;28;20463;-76
2022/01/03 07:49:04;;;;;;;15.73;3.17;;;8.70;99.90;;;;;;4978665;28;20491;-76
2022/01/03 07:51:31;;;;;;;10.23;2.67;;;8.70;99.90;;;;;;4977819;28;20483;-76
2022/01/03 07:53:58;;;;;;;5.63;2.13;;;8.70;99.90;;;;;;4972273;28;20460;-75
2022/01/03 07:56:24;;;;;;;7.43;2.20;;;8.70;99.90;;;;;;4984779;28;20456;-79
2022/01/03 07:58:51;;;;;;;9.10;2.00;;;8.70;99.90;;;;;;4977750;28;20455;-78
2022/01/03 08:01:18;;;;;;;12.83;2.50;;;8.70;99.90;;;;;;4985879;28;20472;-78
2022/01/03 08:03:46;;;;;;;18.97;4.20;;;8.70;99.90;;;;;;4985751;28;20538;-78
2022/01/03 08:06:13;;;;;;;18.10;2.83;;;8.80;99.90;;;;;;4987426;28;20460;-81
2022/01/03 08:08:39;;;;;;;14.20;2.90;;;8.80;99.90;;;;;;4981509;28;20553;-82
2022/01/03 08:11:06;;;;;;;7.10;2.70;;;8.80;99.90;;;;;;4972332;28;20522;-81
2022/01/03 08:13:33;;;;;;;14.30;2.40;;;8.80;99.90;;;;;;4972832;28;20464;-80
2022/01/03 08:16:00;;;;;;;10.00;2.67;;;8.80;99.90;;;;;;4974996;28;20942;-81
2022/01/03 08:18:26;;;;;;;11.67;2.90;;;8.90;99.90;;;;;;4991499;28;20459;-81
2022/01/03 08:20:56;;;;;;;9.27;2.50;;;8.90;99.90;;;;;;4996011;28;20458;-80
2022/01/03 08:23:23;;;;;;;14.00;2.70;;;8.90;99.90;;;;;;4968622;28;20450;-80
2022/01/03 08:25:50;;;;;;;7.30;2.30;;;8.90;99.90;;;;;;4985623;28;20502;-78
2022/01/03 08:28:16;;;;;;;19.87;2.43;;;9.00;99.90;;;;;;4978059;28;20503;-78
2022/01/03 08:30:43;;;;;;;14.93;4.57;;;9.20;99.90;;;;;;4971663;28;20468;-79
2022/01/03 08:33:10;;;;;;;6.60;2.70;;;9.50;99.90;;;;;;4973631;28;20503;-78
2022/01/03 08:35:37;;;;;;;9.03;2.60;;;9.80;99.90;;;;;;4965580;28;20857;-78
2022/01/03 08:38:05;;;;;;;7.30;2.43;;;10.00;99.90;;;;;;4966184;28;20472;-76
2022/01/03 08:40:33;;;;;;;6.40;2.50;;;10.00;99.90;;;;;;4961513;28;20487;-77
2022/01/03 08:42:59;;;;;;;13.50;3.23;;;9.90;99.90;;;;;;4962770;28;20480;-76
2022/01/03 08:45:26;;;;;;;20.47;2.80;;;9.90;99.90;;;;;;4959577;28;21012;-78
2022/01/03 08:47:53;;;;;;;15.73;2.53;;;10.00;99.90;;;;;;4967793;28;20844;-74
2022/01/03 08:50:20;;;;;;;7.57;2.27;;;10.00;99.90;;;;;;4969152;28;20475;-74
2022/01/03 08:52:46;;;;;;;9.23;2.37;;;10.00;99.90;;;;;;4954971;28;20484;-74
2022/01/03 08:55:15;;;;;;;14.20;2.70;;;10.10;99.90;;;;;;4962911;28;20460;-74
2022/01/03 08:57:42;;;;;;;9.93;2.37;;;10.20;99.90;;;;;;4961185;28;20542;-75
2022/01/03 09:00:09;;;;;;;13.97;2.50;;;10.20;99.90;;;;;;4966236;28;20457;-76
2022/01/03 09:02:36;;;;;;;14.87;2.80;;;10.40;99.90;;;;;;4966754;28;20479;-77
2022/01/03 09:05:03;;;;;;;9.70;3.40;;;10.40;99.90;;;;;;4955855;28;20468;-75
2022/01/03 09:07:30;;;;;;;17.57;2.70;;;10.50;99.90;;;;;;4967075;28;20463;-77
2022/01/03 09:09:57;;;;;;;12.20;2.77;;;10.40;99.90;;;;;;4962346;28;20457;-76
2022/01/03 09:12:25;;;;;;;14.23;3.73;;;10.40;99.90;;;;;;4955654;28;21071;-75
2022/01/03 09:14:53;;;;;;;12.37;2.37;;;10.50;99.90;;;;;;4969914;28;20452;-76
2022/01/03 09:17:20;;;;;;;14.70;2.60;;;10.50;99.90;;;;;;4973307;28;20522;-76
2022/01/03 09:19:46;;;;;;;9.90;2.80;;;10.60;99.90;;;;;;4964733;28;20469;-76
2022/01/03 09:22:16;;;;;;;13.73;2.70;;;10.50;99.90;;;;;;4964406;28;20491;-76
2022/01/03 09:24:47;;;;;;;13.70;2.67;;;10.60;99.90;;;;;;4970553;28;20543;-75
2022/01/03 09:30:01;;;;;;;11.90;2.87;;;10.70;99.90;;;;;;4971104;28;20480;-75
2022/01/03 09:32:28;;;;;;;15.33;2.43;;;10.70;99.90;;;;;;4957577;28;21102;-76
2022/01/03 09:34:57;;;;;;;22.80;3.90;;;10.70;99.90;;;;;;4960987;28;20467;-76
2022/01/03 09:37:23;;;;;;;13.80;2.73;;;10.90;99.90;;;;;;4955994;28;20552;-75
2022/01/03 09:39:51;;;;;;;12.97;2.43;;;11.00;99.90;;;;;;4954236;28;20457;-75
2022/01/03 09:42:22;;;;;;;7.13;2.77;;;11.20;99.90;;;;;;4969740;28;20503;-76
2022/01/03 09:44:50;;;;;;;14.20;3.47;;;11.30;99.90;;;;;;4972536;28;20518;-75
2022/01/03 09:47:20;;;;;;;16.00;3.70;;;11.50;99.90;;;;;;4969865;28;20459;-76
2022/01/03 09:49:48;;;;;;;14.07;3.00;;;11.70;99.90;;;;;;4953354;28;20489;-76
2022/01/03 09:52:16;;;;;;;11.57;2.63;;;11.80;99.90;;;;;;4953294;28;20485;-78
2022/01/03 09:54:45;;;;;;;11.23;2.60;;;11.90;99.90;;;;;;4961287;28;20488;-75
2022/01/03 09:57:13;;;;;;;7.80;2.13;;;12.00;99.90;;;;;;4963078;28;20460;-76
2022/01/03 09:59:40;;;;;;;12.83;2.73;;;12.20;99.90;;;;;;4963832;28;20941;-75
2022/01/03 10:02:07;;;;;;;10.47;2.20;;;12.20;99.90;;;;;;4960469;28;20480;-77
2022/01/03 10:04:35;;;;;;;11.17;2.83;;;12.40;99.90;;;;;;4963224;28;20463;-78
2022/01/03 10:07:03;;;;;;;12.83;2.57;;;12.50;99.90;;;;;;4968881;28;20464;-78
2022/01/03 10:09:31;;;;;;;14.50;3.20;;;12.70;99.90;;;;;;4967708;28;20523;-78
2022/01/03 10:11:58;;;;;;;8.23;2.53;;;12.60;99.90;;;;;;4962130;28;21279;-79
2022/01/03 10:14:24;;;;;;;12.97;3.33;;;12.40;99.90;;;;;;4969651;28;20519;-78
2022/01/03 10:16:51;;;;;;;15.17;2.57;;;12.50;99.90;;;;;;4964692;28;20448;-80
2022/01/03 10:19:18;;;;;;;7.00;2.97;;;12.50;99.90;;;;;;4969888;28;20481;-79
2022/01/03 10:21:48;;;;;;;15.07;2.90;;;12.70;99.90;;;;;;4969702;28;20623;-78
2022/01/03 10:24:17;;;;;;;13.30;2.40;;;12.80;99.90;;;;;;4967229;28;20828;-79
2022/01/03 10:26:52;;;;;;;11.67;2.80;;;12.80;99.90;;;;;;4971118;28;20471;-82
2022/01/03 10:29:20;;;;;;;4.30;1.90;;;12.80;99.90;;;;;;4971930;28;20550;-78
2022/01/03 10:31:51;;;;;;;7.80;2.00;;;12.70;99.90;;;;;;4966206;28;20473;-79
2022/01/03 10:34:21;;;;;;;9.03;2.60;;;12.90;99.90;;;;;;4971385;28;20456;-79
2022/01/03 10:36:49;;;;;;;10.60;2.73;;;13.00;99.90;;;;;;4965456;28;20457;-78
2022/01/03 10:39:18;;;;;;;6.77;2.33;;;13.10;99.90;;;;;;4972686;28;20450;-77
2022/01/03 10:41:46;;;;;;;14.40;3.33;;;13.20;99.90;;;;;;4959343;28;20912;-76
2022/01/03 10:44:30;;;;;;;13.17;2.20;;;13.20;99.90;;;;;;4970456;28;21031;-77
2022/01/03 10:46:56;;;;;;;16.83;3.00;;;13.40;99.90;;;;;;4960864;28;20456;-77
2022/01/03 10:49:26;;;;;;;5.90;2.10;;;13.40;99.90;;;;;;4971919;28;20488;-78
2022/01/03 10:52:15;;;;;;;9.03;2.37;;;13.30;99.90;;;;;;4956000;28;20465;-80
2022/01/03 10:54:42;;;;;;;17.03;2.90;;;13.10;99.90;;;;;;4959830;28;20539;-78
2022/01/03 10:57:09;;;;;;;15.43;2.93;;;12.70;99.90;;;;;;4969251;28;20459;-78
2022/01/03 10:59:36;;;;;;;5.67;1.87;;;12.70;99.90;;;;;;4968466;28;20452;-79
2022/01/03 11:02:05;;;;;;;8.20;2.50;;;12.70;99.90;;;;;;4963359;28;20978;-78
2022/01/03 11:04:39;;;;;;;8.57;2.60;;;12.60;99.90;;;;;;4971666;28;20460;-78
2022/01/03 11:10:43;;;;;;;5.87;2.27;;;12.40;99.90;;;;;;4967871;28;20453;-78
2022/01/03 11:13:08;;;;;;;8.47;2.50;;;11.90;99.90;;;;;;4992772;28;20482;-79
2022/01/03 11:15:36;;;;;;;12.40;2.90;;;11.70;99.90;;;;;;4991186;28;20523;-74
2022/01/03 11:18:17;;;;;;;10.93;1.90;;;11.50;99.90;;;;;;5003670;28;20457;-75
2022/01/03 11:20:46;;;;;;;8.47;1.97;;;11.30;99.90;;;;;;4993357;28;20454;-75
2022/01/03 11:23:22;;;;;;;4.97;1.80;;;11.30;99.90;;;;;;5004862;28;20454;-74
2022/01/03 11:25:49;;;;;;;9.83;2.03;;;11.30;99.90;;;;;;4995342;28;20463;-74
2022/01/03 11:28:16;;;;;;;17.13;2.97;;;11.20;99.90;;;;;;5004874;28;20452;-74
2022/01/03 11:30:45;;;;;;;8.00;1.93;;;11.10;99.90;;;;;;4986592;28;20458;-77
2022/01/03 11:33:15;;;;;;;7.63;2.00;;;10.90;99.90;;;;;;4995172;28;20509;-74
2022/01/03 11:35:47;;;;;;;4.87;1.67;;;10.70;99.90;;;;;;4993245;28;20505;-74
2022/01/03 11:38:16;;;;;;;5.90;1.73;;;10.60;99.90;;;;;;4993127;28;20551;-74
2022/01/03 11:40:44;;;;;;;4.63;1.40;;;10.40;99.90;;;;;;4993911;28;20459;-74
2022/01/03 11:43:11;;;;;;;8.90;2.20;;;10.30;99.90;;;;;;4993655;28;21070;-75
2022/01/03 11:45:38;;;;;;;4.17;1.80;;;10.20;99.90;;;;;;4989017;28;20472;-76
2022/01/03 11:48:06;;;;;;;8.43;2.13;;;9.90;99.90;;;;;;4980767;28;20964;-77
2022/01/03 11:50:33;;;;;;;3.30;1.70;;;9.70;99.90;;;;;;4978888;28;20488;-75
2022/01/03 11:53:00;;;;;;;5.93;1.67;;;9.60;99.90;;;;;;4987812;28;20872;-74
2022/01/03 11:55:27;;;;;;;4.73;2.07;;;9.50;99.90;;;;;;4984845;28;20463;-74
2022/01/03 11:58:13;;;;;;;4.03;2.00;;;9.40;99.90;;;;;;4988883;28;20494;-75
2022/01/03 12:03:50;;;;;;;4.30;1.70;;;9.20;99.90;;;;;;4984520;28;20516;-75
2022/01/03 12:06:29;;;;;;;5.43;2.07;;;9.20;99.90;;;;;;4993929;28;20459;-74
2022/01/03 12:08:58;;;;;;;7.17;2.00;;;9.10;99.90;;;;;;4986602;28;20541;-74
2022/01/03 12:11:27;;;;;;;3.47;1.80;;;9.10;99.90;;;;;;4999450;28;21021;-75
2022/01/03 12:13:57;;;;;;;3.33;2.03;;;9.10;99.90;;;;;;4996148;28;20566;-76
2022/01/03 12:16:44;;;;;;;8.73;1.70;;;9.00;99.90;;;;;;4983177;28;20459;-76
2022/01/03 12:19:13;;;;;;;2.90;2.17;;;8.90;99.90;;;;;;4990286;28;20518;-75
2022/01/03 12:21:54;;;;;;;3.93;1.40;;;8.80;99.90;;;;;;4986887;28;20546;-76
2022/01/03 12:27:22;;;;;;;3.20;2.00;;;8.70;99.90;;;;;;5029095;23;21294;-68
2022/01/03 12:30:22;;;;;;;3.90;1.37;;;8.80;99.90;;;;;;5009997;28;20478;-68
2022/01/03 12:33:24;;;;;;;3.47;2.10;;;8.80;99.90;;;;;;5019380;28;20463;-68
2022/01/03 12:36:11;;;;;;;5.43;2.00;;;8.80;99.90;;;;;;5018558;28;20481;-67
2022/01/03 12:38:38;;;;;;;4.57;1.97;;;8.90;99.90;;;;;;5008573;28;20524;-69
2022/01/03 12:41:05;;;;;;;10.67;2.40;;;8.90;99.90;;;;;;5009685;28;20446;-67
2022/01/03 12:43:39;;;;;;;3.53;2.70;;;9.00;99.90;;;;;;5008340;28;21054;-67
2022/01/03 12:46:16;;;;;;;6.00;2.80;;;9.00;99.90;;;;;;5006999;28;20532;-68
2022/01/03 12:48:43;;;;;;;6.17;2.40;;;9.00;99.90;;;;;;5021471;28;20611;-67
2022/01/03 12:51:17;;;;;;;4.93;2.53;;;9.10;99.90;;;;;;5031925;28;21009;-68
2022/01/03 12:53:49;;;;;;;3.10;2.40;;;9.20;99.90;;;;;;5020885;28;20565;-68
2022/01/03 12:56:19;;;;;;;5.67;2.50;;;9.30;99.90;;;;;;5025112;28;20476;-68
2022/01/03 12:58:48;;;;;;;11.37;3.30;;;9.30;99.90;;;;;;5012747;28;20481;-68
2022/01/03 13:01:30;;;;;;;9.13;3.83;;;9.40;99.90;;;;;;5009858;28;20969;-68
2022/01/03 13:04:01;;;;;;;10.90;3.10;;;9.40;99.90;;;;;;5004445;28;20446;-67
2022/01/03 13:06:30;;;;;;;8.90;3.50;;;9.60;99.90;;;;;;5008929;28;20540;-68
2022/01/03 13:09:13;;;;;;;9.83;2.77;;;9.70;99.90;;;;;;5009766;28;20962;-69
2022/01/03 13:11:43;;;;;;;7.20;3.47;;;9.90;99.90;;;;;;5012387;28;20903;-69
2022/01/03 13:14:14;;;;;;;10.33;3.17;;;10.00;99.90;;;;;;5024778;28;20453;-69
2022/01/03 13:16:44;;;;;;;9.87;3.07;;;10.00;99.90;;;;;;5014902;28;20557;-68
2022/01/03 13:19:13;;;;;;;12.07;3.73;;;10.00;99.90;;;;;;5026827;28;20528;-69